Hovedside
METAR-TAF:

METAR-TAF

Lufthavner :

Linköping, Sverige

Flystasjon

breddegrad: 58-24N, lengdegrad: 015-31E, høyde over havet: 93 m

Gjeldene værobservasjon

Denne rapporten ble laget for 32 minutter siden, klokken 20:20 UTC
Vind 13 kt fra Vest
Temperatur 9°C
Luftfuktighet 76%
Trykk 1020 hPa
Sikt 10 km eller mer

METAR: ESCF 262020Z AUTO 27013KT 9999 NCD 09/05 Q1020

Tid: 22:52 (20:52 UTC)


TAF: fraværende

Værobservasjoner og værvarsel for over 4000 flyplasser (METAR- og TAF-rapporter).

Tilgjengelige stasjoner er representert av de røde og gule prikkene på kartet.

Hold musepekeren over prikken for å se navnet på stasjonen.

Klikk så for å se værobservasjoner og -varsler.

For å forandre kartet kan du klikke på den grønne knappen med svart kryss for å zoome inn, på den grønne knappen med strek for å zoome ut, eller på de grønne pilene for å se tilstøtende kart.


METAR-TAF: